sensor_id;sensor_type;location;lat;lon;timestamp;P1;durP1;ratioP1;P2;durP2;ratioP2
60853;SDS011;48554;50.766;2.900;2022-10-31T00:02:18;2.47;;;1.00;;
60853;SDS011;48554;50.766;2.900;2022-10-31T00:04:38;2.00;;;0.90;;
60853;SDS011;48554;50.766;2.900;2022-10-31T00:06:59;1.67;;;0.80;;
60853;SDS011;48554;50.766;2.900;2022-10-31T00:09:19;1.67;;;0.60;;
60853;SDS011;48554;50.766;2.900;2022-10-31T00:11:39;0.80;;;0.60;;
60853;SDS011;48554;50.766;2.900;2022-10-31T00:14:00;1.33;;;0.60;;
60853;SDS011;48554;50.766;2.900;2022-10-31T00:16:21;1.03;;;0.60;;
60853;SDS011;48554;50.766;2.900;2022-10-31T00:18:43;2.42;;;1.02;;
60853;SDS011;48554;50.766;2.900;2022-10-31T00:21:03;1.00;;;0.63;;
60853;SDS011;48554;50.766;2.900;2022-10-31T00:23:24;1.63;;;0.53;;
60853;SDS011;48554;50.766;2.900;2022-10-31T00:25:44;1.60;;;0.60;;
60853;SDS011;48554;50.766;2.900;2022-10-31T00:28:05;1.33;;;0.53;;
60853;SDS011;48554;50.766;2.900;2022-10-31T00:30:28;1.13;;;0.60;;
60853;SDS011;48554;50.766;2.900;2022-10-31T00:32:49;1.37;;;0.70;;
60853;SDS011;48554;50.766;2.900;2022-10-31T00:35:09;1.77;;;0.70;;
60853;SDS011;48554;50.766;2.900;2022-10-31T00:37:29;1.37;;;0.67;;
60853;SDS011;48554;50.766;2.900;2022-10-31T00:39:49;0.93;;;0.70;;
60853;SDS011;48554;50.766;2.900;2022-10-31T00:42:10;1.73;;;0.83;;
60853;SDS011;48554;50.766;2.900;2022-10-31T00:44:30;0.90;;;0.50;;
60853;SDS011;48554;50.766;2.900;2022-10-31T00:46:50;2.30;;;0.67;;
60853;SDS011;48554;50.766;2.900;2022-10-31T00:49:10;2.33;;;0.67;;
60853;SDS011;48554;50.766;2.900;2022-10-31T00:51:31;0.90;;;0.60;;
60853;SDS011;48554;50.766;2.900;2022-10-31T00:53:51;1.10;;;0.60;;
60853;SDS011;48554;50.766;2.900;2022-10-31T00:56:11;2.30;;;0.70;;
60853;SDS011;48554;50.766;2.900;2022-10-31T00:58:32;1.60;;;0.70;;
60853;SDS011;48554;50.766;2.900;2022-10-31T01:00:52;1.63;;;0.50;;
60853;SDS011;48554;50.766;2.900;2022-10-31T01:03:12;1.10;;;0.67;;
60853;SDS011;48554;50.766;2.900;2022-10-31T01:05:33;1.10;;;0.60;;
60853;SDS011;48554;50.766;2.900;2022-10-31T01:07:53;1.20;;;0.60;;
60853;SDS011;48554;50.766;2.900;2022-10-31T01:10:13;0.50;;;0.50;;
60853;SDS011;48554;50.766;2.900;2022-10-31T01:12:52;1.57;;;0.70;;
60853;SDS011;48554;50.766;2.900;2022-10-31T01:15:13;2.85;;;0.90;;
60853;SDS011;48554;50.766;2.900;2022-10-31T01:17:35;1.48;;;0.82;;
60853;SDS011;48554;50.766;2.900;2022-10-31T01:19:55;1.23;;;0.63;;
60853;SDS011;48554;50.766;2.900;2022-10-31T01:22:15;0.93;;;0.60;;
60853;SDS011;48554;50.766;2.900;2022-10-31T01:24:35;0.63;;;0.47;;
60853;SDS011;48554;50.766;2.900;2022-10-31T01:26:56;1.90;;;0.90;;
60853;SDS011;48554;50.766;2.900;2022-10-31T01:29:16;3.78;;;0.80;;
60853;SDS011;48554;50.766;2.900;2022-10-31T01:31:37;0.93;;;0.70;;
60853;SDS011;48554;50.766;2.900;2022-10-31T01:33:59;1.38;;;0.65;;
60853;SDS011;48554;50.766;2.900;2022-10-31T01:38:50;1.45;;;0.90;;
60853;SDS011;48554;50.766;2.900;2022-10-31T01:41:14;1.15;;;0.70;;
60853;SDS011;48554;50.766;2.900;2022-10-31T01:43:43;1.08;;;0.70;;
60853;SDS011;48554;50.766;2.900;2022-10-31T01:46:15;1.45;;;0.80;;
60853;SDS011;48554;50.766;2.900;2022-10-31T01:48:39;2.25;;;1.00;;
60853;SDS011;48554;50.766;2.900;2022-10-31T01:51:00;1.10;;;0.90;;
60853;SDS011;48554;50.766;2.900;2022-10-31T01:53:22;0.98;;;0.80;;
60853;SDS011;48554;50.766;2.900;2022-10-31T01:55:44;1.27;;;0.60;;
60853;SDS011;48554;50.766;2.900;2022-10-31T01:58:13;1.55;;;0.60;;
60853;SDS011;48554;50.766;2.900;2022-10-31T02:00:37;0.98;;;0.60;;
60853;SDS011;48554;50.766;2.900;2022-10-31T02:02:59;1.02;;;0.75;;
60853;SDS011;48554;50.766;2.900;2022-10-31T02:05:20;1.90;;;0.90;;
60853;SDS011;48554;50.766;2.900;2022-10-31T02:10:26;1.45;;;0.88;;
60853;SDS011;48554;50.766;2.900;2022-10-31T02:12:47;2.58;;;0.93;;
60853;SDS011;48554;50.766;2.900;2022-10-31T02:15:08;1.47;;;0.60;;
60853;SDS011;48554;50.766;2.900;2022-10-31T02:17:29;1.73;;;0.80;;
60853;SDS011;48554;50.766;2.900;2022-10-31T02:20:04;3.17;;;0.80;;
60853;SDS011;48554;50.766;2.900;2022-10-31T02:31:07;1.10;;;0.70;;
60853;SDS011;48554;50.766;2.900;2022-10-31T02:33:41;1.63;;;0.75;;
60853;SDS011;48554;50.766;2.900;2022-10-31T02:39:02;2.47;;;0.90;;
60853;SDS011;48554;50.766;2.900;2022-10-31T02:43:58;2.22;;;0.93;;
60853;SDS011;48554;50.766;2.900;2022-10-31T02:46:29;1.75;;;0.80;;
60853;SDS011;48554;50.766;2.900;2022-10-31T02:48:55;1.38;;;0.73;;
60853;SDS011;48554;50.766;2.900;2022-10-31T02:51:23;2.17;;;0.70;;
60853;SDS011;48554;50.766;2.900;2022-10-31T02:53:43;1.03;;;0.77;;
60853;SDS011;48554;50.766;2.900;2022-10-31T02:56:05;1.67;;;0.90;;
60853;SDS011;48554;50.766;2.900;2022-10-31T02:58:32;3.55;;;0.95;;
60853;SDS011;48554;50.766;2.900;2022-10-31T03:03:48;1.45;;;0.90;;
60853;SDS011;48554;50.766;2.900;2022-10-31T03:06:30;2.60;;;0.80;;
60853;SDS011;48554;50.766;2.900;2022-10-31T03:09:09;3.00;;;1.10;;
60853;SDS011;48554;50.766;2.900;2022-10-31T03:14:39;3.03;;;0.98;;
60853;SDS011;48554;50.766;2.900;2022-10-31T03:17:30;1.35;;;0.70;;
60853;SDS011;48554;50.766;2.900;2022-10-31T03:19:53;2.45;;;1.40;;
60853;SDS011;48554;50.766;2.900;2022-10-31T03:22:21;1.58;;;0.88;;
60853;SDS011;48554;50.766;2.900;2022-10-31T03:24:43;2.33;;;0.93;;
60853;SDS011;48554;50.766;2.900;2022-10-31T03:27:07;2.15;;;1.00;;
60853;SDS011;48554;50.766;2.900;2022-10-31T03:29:30;2.72;;;1.10;;
60853;SDS011;48554;50.766;2.900;2022-10-31T03:31:59;2.60;;;1.10;;
60853;SDS011;48554;50.766;2.900;2022-10-31T03:34:33;1.60;;;0.90;;
60853;SDS011;48554;50.766;2.900;2022-10-31T03:36:57;1.45;;;0.90;;
60853;SDS011;48554;50.766;2.900;2022-10-31T03:39:21;1.52;;;0.77;;
60853;SDS011;48554;50.766;2.900;2022-10-31T03:44:10;2.25;;;0.77;;
60853;SDS011;48554;50.766;2.900;2022-10-31T03:46:33;2.10;;;1.10;;
60853;SDS011;48554;50.766;2.900;2022-10-31T03:48:54;2.20;;;1.10;;
60853;SDS011;48554;50.766;2.900;2022-10-31T03:51:25;1.53;;;0.80;;
60853;SDS011;48554;50.766;2.900;2022-10-31T03:53:50;1.35;;;0.70;;
60853;SDS011;48554;50.766;2.900;2022-10-31T03:56:18;1.73;;;0.80;;
60853;SDS011;48554;50.766;2.900;2022-10-31T03:59:05;1.17;;;0.90;;
60853;SDS011;48554;50.766;2.900;2022-10-31T04:02:03;2.47;;;0.80;;
60853;SDS011;48554;50.766;2.900;2022-10-31T04:04:28;1.27;;;0.70;;
60853;SDS011;48554;50.766;2.900;2022-10-31T04:06:50;2.05;;;0.90;;
60853;SDS011;48554;50.766;2.900;2022-10-31T04:09:12;2.00;;;0.82;;
60853;SDS011;48554;50.766;2.900;2022-10-31T04:11:38;1.80;;;0.73;;
60853;SDS011;48554;50.766;2.900;2022-10-31T04:14:03;0.90;;;0.60;;
60853;SDS011;48554;50.766;2.900;2022-10-31T04:16:25;1.63;;;0.80;;
60853;SDS011;48554;50.766;2.900;2022-10-31T04:18:46;1.98;;;0.88;;
60853;SDS011;48554;50.766;2.900;2022-10-31T04:21:07;2.73;;;0.83;;
60853;SDS011;48554;50.766;2.900;2022-10-31T04:23:28;3.30;;;1.73;;
60853;SDS011;48554;50.766;2.900;2022-10-31T04:25:48;1.40;;;0.77;;
60853;SDS011;48554;50.766;2.900;2022-10-31T04:28:09;1.63;;;0.83;;
60853;SDS011;48554;50.766;2.900;2022-10-31T04:30:29;2.17;;;0.98;;
60853;SDS011;48554;50.766;2.900;2022-10-31T04:32:49;2.43;;;0.87;;
60853;SDS011;48554;50.766;2.900;2022-10-31T04:35:10;3.17;;;1.00;;
60853;SDS011;48554;50.766;2.900;2022-10-31T04:37:30;1.50;;;0.73;;
60853;SDS011;48554;50.766;2.900;2022-10-31T04:39:50;1.33;;;0.90;;
60853;SDS011;48554;50.766;2.900;2022-10-31T04:42:10;1.83;;;0.87;;
60853;SDS011;48554;50.766;2.900;2022-10-31T04:44:30;1.47;;;0.87;;
60853;SDS011;48554;50.766;2.900;2022-10-31T04:46:51;1.13;;;0.60;;
60853;SDS011;48554;50.766;2.900;2022-10-31T04:49:11;2.63;;;1.13;;
60853;SDS011;48554;50.766;2.900;2022-10-31T04:51:31;1.57;;;1.00;;
60853;SDS011;48554;50.766;2.900;2022-10-31T04:53:52;1.63;;;0.73;;
60853;SDS011;48554;50.766;2.900;2022-10-31T04:56:12;1.60;;;0.97;;
60853;SDS011;48554;50.766;2.900;2022-10-31T04:58:32;2.03;;;1.07;;
60853;SDS011;48554;50.766;2.900;2022-10-31T05:00:53;2.07;;;1.00;;
60853;SDS011;48554;50.766;2.900;2022-10-31T05:03:13;5.57;;;1.30;;
60853;SDS011;48554;50.766;2.900;2022-10-31T05:05:34;3.00;;;1.00;;
60853;SDS011;48554;50.766;2.900;2022-10-31T05:07:54;2.03;;;1.00;;
60853;SDS011;48554;50.766;2.900;2022-10-31T05:10:16;1.38;;;0.90;;
60853;SDS011;48554;50.766;2.900;2022-10-31T05:12:40;4.03;;;1.00;;
60853;SDS011;48554;50.766;2.900;2022-10-31T05:15:06;2.20;;;0.98;;
60853;SDS011;48554;50.766;2.900;2022-10-31T05:17:26;1.83;;;0.87;;
60853;SDS011;48554;50.766;2.900;2022-10-31T05:19:47;2.57;;;1.07;;
60853;SDS011;48554;50.766;2.900;2022-10-31T05:22:07;1.80;;;1.07;;
60853;SDS011;48554;50.766;2.900;2022-10-31T05:24:27;2.08;;;0.88;;
60853;SDS011;48554;50.766;2.900;2022-10-31T05:26:48;2.65;;;1.20;;
60853;SDS011;48554;50.766;2.900;2022-10-31T05:29:08;2.30;;;1.08;;
60853;SDS011;48554;50.766;2.900;2022-10-31T05:31:29;2.73;;;1.10;;
60853;SDS011;48554;50.766;2.900;2022-10-31T05:33:49;1.83;;;0.97;;
60853;SDS011;48554;50.766;2.900;2022-10-31T05:36:09;2.92;;;1.10;;
60853;SDS011;48554;50.766;2.900;2022-10-31T05:38:30;3.17;;;1.10;;
60853;SDS011;48554;50.766;2.900;2022-10-31T05:40:50;4.20;;;1.20;;
60853;SDS011;48554;50.766;2.900;2022-10-31T05:43:14;2.35;;;0.80;;
60853;SDS011;48554;50.766;2.900;2022-10-31T05:45:34;4.13;;;1.10;;
60853;SDS011;48554;50.766;2.900;2022-10-31T05:47:58;2.37;;;1.03;;
60853;SDS011;48554;50.766;2.900;2022-10-31T05:50:20;3.28;;;1.05;;
60853;SDS011;48554;50.766;2.900;2022-10-31T05:52:40;1.98;;;0.98;;
60853;SDS011;48554;50.766;2.900;2022-10-31T05:55:01;1.63;;;0.90;;
60853;SDS011;48554;50.766;2.900;2022-10-31T05:57:21;1.90;;;0.77;;
60853;SDS011;48554;50.766;2.900;2022-10-31T05:59:41;4.27;;;1.23;;
60853;SDS011;48554;50.766;2.900;2022-10-31T06:02:01;1.80;;;1.00;;
60853;SDS011;48554;50.766;2.900;2022-10-31T06:04:22;4.18;;;1.25;;
60853;SDS011;48554;50.766;2.900;2022-10-31T06:06:42;2.30;;;1.10;;
60853;SDS011;48554;50.766;2.900;2022-10-31T06:09:02;2.03;;;0.98;;
60853;SDS011;48554;50.766;2.900;2022-10-31T06:11:23;2.55;;;1.10;;
60853;SDS011;48554;50.766;2.900;2022-10-31T06:13:43;2.28;;;1.00;;
60853;SDS011;48554;50.766;2.900;2022-10-31T06:16:04;1.83;;;0.85;;
60853;SDS011;48554;50.766;2.900;2022-10-31T06:18:24;2.53;;;1.08;;
60853;SDS011;48554;50.766;2.900;2022-10-31T06:20:44;2.67;;;1.30;;
60853;SDS011;48554;50.766;2.900;2022-10-31T06:23:06;2.80;;;1.13;;
60853;SDS011;48554;50.766;2.900;2022-10-31T06:25:26;2.15;;;0.93;;
60853;SDS011;48554;50.766;2.900;2022-10-31T06:27:47;1.87;;;1.00;;
60853;SDS011;48554;50.766;2.900;2022-10-31T06:30:07;1.70;;;0.87;;
60853;SDS011;48554;50.766;2.900;2022-10-31T06:32:28;3.07;;;0.83;;
60853;SDS011;48554;50.766;2.900;2022-10-31T06:34:49;6.17;;;1.77;;
60853;SDS011;48554;50.766;2.900;2022-10-31T06:37:10;3.33;;;1.03;;
60853;SDS011;48554;50.766;2.900;2022-10-31T06:39:31;1.98;;;0.90;;
60853;SDS011;48554;50.766;2.900;2022-10-31T06:41:51;3.53;;;0.87;;
60853;SDS011;48554;50.766;2.900;2022-10-31T06:44:12;4.00;;;1.07;;
60853;SDS011;48554;50.766;2.900;2022-10-31T06:46:32;5.30;;;1.40;;
60853;SDS011;48554;50.766;2.900;2022-10-31T06:48:52;3.93;;;1.23;;
60853;SDS011;48554;50.766;2.900;2022-10-31T06:51:12;7.95;;;1.48;;
60853;SDS011;48554;50.766;2.900;2022-10-31T06:53:33;3.07;;;1.30;;
60853;SDS011;48554;50.766;2.900;2022-10-31T06:55:53;4.73;;;1.20;;
60853;SDS011;48554;50.766;2.900;2022-10-31T06:58:18;6.07;;;1.75;;
60853;SDS011;48554;50.766;2.900;2022-10-31T07:00:38;4.93;;;1.80;;
60853;SDS011;48554;50.766;2.900;2022-10-31T07:03:02;8.83;;;1.60;;
60853;SDS011;48554;50.766;2.900;2022-10-31T07:05:25;3.78;;;1.27;;
60853;SDS011;48554;50.766;2.900;2022-10-31T07:07:46;5.60;;;1.80;;
60853;SDS011;48554;50.766;2.900;2022-10-31T07:10:06;6.20;;;1.70;;
60853;SDS011;48554;50.766;2.900;2022-10-31T07:12:27;3.43;;;1.40;;
60853;SDS011;48554;50.766;2.900;2022-10-31T07:14:47;4.03;;;1.70;;
60853;SDS011;48554;50.766;2.900;2022-10-31T07:17:07;4.83;;;1.60;;
60853;SDS011;48554;50.766;2.900;2022-10-31T07:19:27;6.13;;;1.27;;
60853;SDS011;48554;50.766;2.900;2022-10-31T07:21:48;4.17;;;1.40;;
60853;SDS011;48554;50.766;2.900;2022-10-31T07:24:08;5.80;;;1.45;;
60853;SDS011;48554;50.766;2.900;2022-10-31T07:26:28;4.28;;;1.55;;
60853;SDS011;48554;50.766;2.900;2022-10-31T07:28:48;5.30;;;1.33;;
60853;SDS011;48554;50.766;2.900;2022-10-31T07:31:08;3.47;;;1.70;;
60853;SDS011;48554;50.766;2.900;2022-10-31T07:33:29;5.57;;;1.33;;
60853;SDS011;48554;50.766;2.900;2022-10-31T07:35:49;3.77;;;1.77;;
60853;SDS011;48554;50.766;2.900;2022-10-31T07:38:10;3.63;;;1.50;;
60853;SDS011;48554;50.766;2.900;2022-10-31T07:40:31;2.22;;;1.02;;
60853;SDS011;48554;50.766;2.900;2022-10-31T07:42:52;3.00;;;1.10;;
60853;SDS011;48554;50.766;2.900;2022-10-31T07:45:14;3.57;;;1.90;;
60853;SDS011;48554;50.766;2.900;2022-10-31T07:49:59;3.50;;;1.25;;
60853;SDS011;48554;50.766;2.900;2022-10-31T07:52:20;4.30;;;1.27;;
60853;SDS011;48554;50.766;2.900;2022-10-31T07:54:40;7.00;;;1.73;;
60853;SDS011;48554;50.766;2.900;2022-10-31T07:57:00;3.40;;;1.20;;
60853;SDS011;48554;50.766;2.900;2022-10-31T07:59:20;4.20;;;1.50;;
60853;SDS011;48554;50.766;2.900;2022-10-31T08:01:41;3.60;;;1.40;;
60853;SDS011;48554;50.766;2.900;2022-10-31T08:04:01;3.33;;;1.53;;
60853;SDS011;48554;50.766;2.900;2022-10-31T08:06:21;4.43;;;1.40;;
60853;SDS011;48554;50.766;2.900;2022-10-31T08:08:41;4.97;;;1.07;;
60853;SDS011;48554;50.766;2.900;2022-10-31T08:11:02;3.87;;;1.20;;
60853;SDS011;48554;50.766;2.900;2022-10-31T08:13:22;2.93;;;1.33;;
60853;SDS011;48554;50.766;2.900;2022-10-31T08:15:42;6.23;;;1.10;;
60853;SDS011;48554;50.766;2.900;2022-10-31T08:18:03;4.83;;;1.20;;
60853;SDS011;48554;50.766;2.900;2022-10-31T08:20:23;4.88;;;1.60;;
60853;SDS011;48554;50.766;2.900;2022-10-31T08:22:52;2.15;;;1.23;;
60853;SDS011;48554;50.766;2.900;2022-10-31T08:25:13;2.67;;;1.15;;
60853;SDS011;48554;50.766;2.900;2022-10-31T08:27:33;4.25;;;1.80;;
60853;SDS011;48554;50.766;2.900;2022-10-31T08:29:53;4.95;;;1.55;;
60853;SDS011;48554;50.766;2.900;2022-10-31T08:32:14;2.80;;;1.53;;
60853;SDS011;48554;50.766;2.900;2022-10-31T08:34:34;5.05;;;1.63;;
60853;SDS011;48554;50.766;2.900;2022-10-31T08:36:54;3.17;;;1.40;;
60853;SDS011;48554;50.766;2.900;2022-10-31T08:39:14;2.40;;;1.33;;
60853;SDS011;48554;50.766;2.900;2022-10-31T08:41:35;3.47;;;1.33;;
60853;SDS011;48554;50.766;2.900;2022-10-31T08:43:55;4.53;;;1.50;;
60853;SDS011;48554;50.766;2.900;2022-10-31T08:46:15;3.72;;;1.50;;
60853;SDS011;48554;50.766;2.900;2022-10-31T08:48:36;4.00;;;1.70;;
60853;SDS011;48554;50.766;2.900;2022-10-31T08:50:57;3.90;;;1.53;;
60853;SDS011;48554;50.766;2.900;2022-10-31T08:53:18;2.08;;;1.17;;
60853;SDS011;48554;50.766;2.900;2022-10-31T08:55:39;2.53;;;1.42;;
60853;SDS011;48554;50.766;2.900;2022-10-31T08:58:01;3.65;;;1.70;;
60853;SDS011;48554;50.766;2.900;2022-10-31T09:00:22;4.63;;;1.77;;
60853;SDS011;48554;50.766;2.900;2022-10-31T09:02:42;3.63;;;1.42;;
60853;SDS011;48554;50.766;2.900;2022-10-31T09:05:03;3.33;;;1.60;;
60853;SDS011;48554;50.766;2.900;2022-10-31T09:07:24;4.87;;;1.63;;
60853;SDS011;48554;50.766;2.900;2022-10-31T09:09:44;7.07;;;1.90;;
60853;SDS011;48554;50.766;2.900;2022-10-31T09:12:04;4.00;;;1.30;;
60853;SDS011;48554;50.766;2.900;2022-10-31T09:14:25;4.27;;;1.90;;
60853;SDS011;48554;50.766;2.900;2022-10-31T09:16:45;4.22;;;1.90;;
60853;SDS011;48554;50.766;2.900;2022-10-31T09:19:05;3.80;;;1.40;;
60853;SDS011;48554;50.766;2.900;2022-10-31T09:21:25;3.17;;;1.50;;
60853;SDS011;48554;50.766;2.900;2022-10-31T09:23:46;3.97;;;1.67;;
60853;SDS011;48554;50.766;2.900;2022-10-31T09:26:06;4.90;;;2.10;;
60853;SDS011;48554;50.766;2.900;2022-10-31T09:28:26;4.43;;;1.97;;
60853;SDS011;48554;50.766;2.900;2022-10-31T09:30:47;4.57;;;1.87;;
60853;SDS011;48554;50.766;2.900;2022-10-31T09:33:09;4.72;;;1.90;;
60853;SDS011;48554;50.766;2.900;2022-10-31T09:35:31;3.58;;;1.65;;
60853;SDS011;48554;50.766;2.900;2022-10-31T09:37:55;4.53;;;1.93;;
60853;SDS011;48554;50.766;2.900;2022-10-31T09:40:24;4.18;;;1.80;;
60853;SDS011;48554;50.766;2.900;2022-10-31T09:48:09;4.97;;;1.85;;
60853;SDS011;48554;50.766;2.900;2022-10-31T09:51:03;4.80;;;2.60;;
60853;SDS011;48554;50.766;2.900;2022-10-31T09:56:07;4.53;;;2.13;;
60853;SDS011;48554;50.766;2.900;2022-10-31T09:58:31;6.35;;;2.20;;
60853;SDS011;48554;50.766;2.900;2022-10-31T10:00:59;4.43;;;2.10;;
60853;SDS011;48554;50.766;2.900;2022-10-31T10:03:33;3.78;;;1.77;;
60853;SDS011;48554;50.766;2.900;2022-10-31T10:06:32;5.50;;;2.10;;
60853;SDS011;48554;50.766;2.900;2022-10-31T10:08:47;4.13;;;2.00;;
60853;SDS011;48554;50.766;2.900;2022-10-31T10:11:21;4.03;;;2.08;;
60853;SDS011;48554;50.766;2.900;2022-10-31T10:30:19;4.05;;;1.75;;
60853;SDS011;48554;50.766;2.900;2022-10-31T10:32:51;6.22;;;2.40;;
60853;SDS011;48554;50.766;2.900;2022-10-31T10:35:19;5.07;;;2.30;;
60853;SDS011;48554;50.766;2.900;2022-10-31T10:37:58;6.60;;;2.20;;
60853;SDS011;48554;50.766;2.900;2022-10-31T10:40:24;7.25;;;2.30;;
60853;SDS011;48554;50.766;2.900;2022-10-31T10:42:50;4.57;;;1.98;;
60853;SDS011;48554;50.766;2.900;2022-10-31T10:45:18;4.65;;;1.83;;
60853;SDS011;48554;50.766;2.900;2022-10-31T10:47:44;6.22;;;2.28;;
60853;SDS011;48554;50.766;2.900;2022-10-31T10:55:03;4.50;;;1.85;;
60853;SDS011;48554;50.766;2.900;2022-10-31T11:02:45;5.13;;;1.88;;
60853;SDS011;48554;50.766;2.900;2022-10-31T11:05:08;4.60;;;1.90;;
60853;SDS011;48554;50.766;2.900;2022-10-31T11:10:02;2.85;;;1.40;;
60853;SDS011;48554;50.766;2.900;2022-10-31T11:12:28;3.97;;;1.35;;
60853;SDS011;48554;50.766;2.900;2022-10-31T11:14:54;2.47;;;1.08;;
60853;SDS011;48554;50.766;2.900;2022-10-31T11:20:05;2.45;;;1.10;;
60853;SDS011;48554;50.766;2.900;2022-10-31T11:22:32;2.05;;;0.98;;
60853;SDS011;48554;50.766;2.900;2022-10-31T11:24:52;1.90;;;1.07;;
60853;SDS011;48554;50.766;2.900;2022-10-31T11:27:14;3.38;;;1.17;;
60853;SDS011;48554;50.766;2.900;2022-10-31T11:29:34;3.97;;;1.10;;
60853;SDS011;48554;50.766;2.900;2022-10-31T11:31:55;3.23;;;1.03;;
60853;SDS011;48554;50.766;2.900;2022-10-31T11:36:58;2.97;;;1.25;;
60853;SDS011;48554;50.766;2.900;2022-10-31T11:39:32;2.78;;;1.02;;
60853;SDS011;48554;50.766;2.900;2022-10-31T11:42:08;3.22;;;1.38;;
60853;SDS011;48554;50.766;2.900;2022-10-31T11:44:29;2.93;;;1.20;;
60853;SDS011;48554;50.766;2.900;2022-10-31T11:46:57;3.72;;;1.20;;
60853;SDS011;48554;50.766;2.900;2022-10-31T11:49:27;2.72;;;1.30;;
60853;SDS011;48554;50.766;2.900;2022-10-31T11:51:51;2.78;;;1.10;;
60853;SDS011;48554;50.766;2.900;2022-10-31T11:54:27;4.05;;;1.40;;
60853;SDS011;48554;50.766;2.900;2022-10-31T11:56:50;3.30;;;1.50;;
60853;SDS011;48554;50.766;2.900;2022-10-31T11:59:50;3.47;;;1.40;;
60853;SDS011;48554;50.766;2.900;2022-10-31T12:01:59;2.90;;;1.17;;
60853;SDS011;48554;50.766;2.900;2022-10-31T12:07:07;3.22;;;1.20;;
60853;SDS011;48554;50.766;2.900;2022-10-31T12:09:28;3.27;;;1.20;;
60853;SDS011;48554;50.766;2.900;2022-10-31T12:12:10;3.13;;;1.20;;
60853;SDS011;48554;50.766;2.900;2022-10-31T12:17:15;4.53;;;1.43;;
60853;SDS011;48554;50.766;2.900;2022-10-31T12:22:25;2.70;;;1.13;;
60853;SDS011;48554;50.766;2.900;2022-10-31T12:35:36;3.10;;;1.15;;
60853;SDS011;48554;50.766;2.900;2022-10-31T12:46:27;2.75;;;1.05;;
60853;SDS011;48554;50.766;2.900;2022-10-31T12:54:21;2.70;;;1.37;;
60853;SDS011;48554;50.766;2.900;2022-10-31T13:00:07;3.63;;;1.38;;
60853;SDS011;48554;50.766;2.900;2022-10-31T13:02:34;3.97;;;1.25;;
60853;SDS011;48554;50.766;2.900;2022-10-31T13:04:55;3.17;;;1.20;;
60853;SDS011;48554;50.766;2.900;2022-10-31T13:07:37;5.22;;;1.48;;
60853;SDS011;48554;50.766;2.900;2022-10-31T13:10:21;3.60;;;1.45;;
60853;SDS011;48554;50.766;2.900;2022-10-31T13:12:45;1.85;;;1.05;;
60853;SDS011;48554;50.766;2.900;2022-10-31T13:15:16;1.80;;;0.95;;
60853;SDS011;48554;50.766;2.900;2022-10-31T13:24:59;3.08;;;1.30;;
60853;SDS011;48554;50.766;2.900;2022-10-31T13:27:33;2.08;;;1.20;;
60853;SDS011;48554;50.766;2.900;2022-10-31T13:30:10;3.08;;;1.10;;
60853;SDS011;48554;50.766;2.900;2022-10-31T13:35:01;3.13;;;1.30;;
60853;SDS011;48554;50.766;2.900;2022-10-31T13:37:27;3.83;;;1.63;;
60853;SDS011;48554;50.766;2.900;2022-10-31T13:39:50;3.38;;;1.23;;
60853;SDS011;48554;50.766;2.900;2022-10-31T13:45:15;2.65;;;1.30;;
60853;SDS011;48554;50.766;2.900;2022-10-31T13:47:37;3.55;;;1.27;;
60853;SDS011;48554;50.766;2.900;2022-10-31T13:50:04;2.93;;;1.10;;
60853;SDS011;48554;50.766;2.900;2022-10-31T13:52:25;2.58;;;1.30;;
60853;SDS011;48554;50.766;2.900;2022-10-31T13:54:47;3.38;;;1.55;;
60853;SDS011;48554;50.766;2.900;2022-10-31T13:57:14;5.38;;;1.50;;
60853;SDS011;48554;50.766;2.900;2022-10-31T13:59:38;3.72;;;1.35;;
60853;SDS011;48554;50.766;2.900;2022-10-31T14:01:59;3.03;;;1.40;;
60853;SDS011;48554;50.766;2.900;2022-10-31T14:04:29;2.80;;;1.23;;
60853;SDS011;48554;50.766;2.900;2022-10-31T14:07:10;3.00;;;1.27;;
60853;SDS011;48554;50.766;2.900;2022-10-31T14:09:33;2.83;;;1.20;;
60853;SDS011;48554;50.766;2.900;2022-10-31T14:11:57;3.17;;;1.63;;
60853;SDS011;48554;50.766;2.900;2022-10-31T14:14:33;4.15;;;1.60;;
60853;SDS011;48554;50.766;2.900;2022-10-31T14:17:12;6.75;;;2.10;;
60853;SDS011;48554;50.766;2.900;2022-10-31T14:19:39;3.45;;;1.63;;
60853;SDS011;48554;50.766;2.900;2022-10-31T14:21:59;3.67;;;1.33;;
60853;SDS011;48554;50.766;2.900;2022-10-31T14:26:56;2.95;;;1.58;;
60853;SDS011;48554;50.766;2.900;2022-10-31T14:29:22;2.33;;;1.40;;
60853;SDS011;48554;50.766;2.900;2022-10-31T14:31:51;4.03;;;1.80;;
60853;SDS011;48554;50.766;2.900;2022-10-31T14:34:21;3.65;;;1.27;;
60853;SDS011;48554;50.766;2.900;2022-10-31T14:39:24;4.88;;;1.67;;
60853;SDS011;48554;50.766;2.900;2022-10-31T14:52:25;3.95;;;1.80;;
60853;SDS011;48554;50.766;2.900;2022-10-31T14:54:49;4.50;;;2.03;;
60853;SDS011;48554;50.766;2.900;2022-10-31T14:57:19;4.75;;;1.60;;
60853;SDS011;48554;50.766;2.900;2022-10-31T14:59:54;4.57;;;1.67;;
60853;SDS011;48554;50.766;2.900;2022-10-31T15:02:22;6.40;;;1.77;;
60853;SDS011;48554;50.766;2.900;2022-10-31T15:04:47;4.53;;;2.00;;
60853;SDS011;48554;50.766;2.900;2022-10-31T15:09:36;4.35;;;2.35;;
60853;SDS011;48554;50.766;2.900;2022-10-31T15:12:00;4.90;;;2.10;;
60853;SDS011;48554;50.766;2.900;2022-10-31T15:14:41;6.25;;;2.05;;
60853;SDS011;48554;50.766;2.900;2022-10-31T15:17:01;5.40;;;2.03;;
60853;SDS011;48554;50.766;2.900;2022-10-31T15:19:23;3.83;;;1.83;;
60853;SDS011;48554;50.766;2.900;2022-10-31T15:21:45;6.78;;;2.28;;
60853;SDS011;48554;50.766;2.900;2022-10-31T15:24:10;3.97;;;2.07;;
60853;SDS011;48554;50.766;2.900;2022-10-31T15:26:35;4.50;;;2.20;;
60853;SDS011;48554;50.766;2.900;2022-10-31T15:28:59;4.53;;;2.13;;
60853;SDS011;48554;50.766;2.900;2022-10-31T15:31:24;4.80;;;2.03;;
60853;SDS011;48554;50.766;2.900;2022-10-31T15:33:46;6.20;;;2.13;;
60853;SDS011;48554;50.766;2.900;2022-10-31T15:36:22;6.13;;;2.13;;
60853;SDS011;48554;50.766;2.900;2022-10-31T15:38:45;5.70;;;2.33;;
60853;SDS011;48554;50.766;2.900;2022-10-31T15:41:17;4.77;;;2.00;;
60853;SDS011;48554;50.766;2.900;2022-10-31T15:43:50;5.38;;;2.40;;
60853;SDS011;48554;50.766;2.900;2022-10-31T15:46:11;7.50;;;2.70;;
60853;SDS011;48554;50.766;2.900;2022-10-31T15:48:31;5.40;;;2.03;;
60853;SDS011;48554;50.766;2.900;2022-10-31T15:50:55;6.03;;;2.03;;
60853;SDS011;48554;50.766;2.900;2022-10-31T15:53:23;5.05;;;2.00;;
60853;SDS011;48554;50.766;2.900;2022-10-31T15:56:07;7.80;;;2.63;;
60853;SDS011;48554;50.766;2.900;2022-10-31T16:01:00;4.75;;;2.47;;
60853;SDS011;48554;50.766;2.900;2022-10-31T16:03:24;4.28;;;2.08;;
60853;SDS011;48554;50.766;2.900;2022-10-31T16:05:50;5.60;;;2.75;;
60853;SDS011;48554;50.766;2.900;2022-10-31T16:10:50;6.65;;;2.45;;
60853;SDS011;48554;50.766;2.900;2022-10-31T16:13:11;6.93;;;2.80;;
60853;SDS011;48554;50.766;2.900;2022-10-31T16:15:31;6.05;;;2.92;;
60853;SDS011;48554;50.766;2.900;2022-10-31T16:17:51;7.93;;;2.43;;
60853;SDS011;48554;50.766;2.900;2022-10-31T16:20:18;8.57;;;2.93;;
60853;SDS011;48554;50.766;2.900;2022-10-31T16:22:40;6.15;;;2.60;;
60853;SDS011;48554;50.766;2.900;2022-10-31T16:25:11;5.60;;;2.43;;
60853;SDS011;48554;50.766;2.900;2022-10-31T16:27:34;7.15;;;2.42;;
60853;SDS011;48554;50.766;2.900;2022-10-31T16:29:57;4.80;;;2.15;;
60853;SDS011;48554;50.766;2.900;2022-10-31T16:32:25;9.68;;;2.75;;
60853;SDS011;48554;50.766;2.900;2022-10-31T16:34:56;6.53;;;2.20;;
60853;SDS011;48554;50.766;2.900;2022-10-31T16:37:21;4.38;;;2.05;;
60853;SDS011;48554;50.766;2.900;2022-10-31T16:39:41;5.90;;;2.60;;
60853;SDS011;48554;50.766;2.900;2022-10-31T16:42:01;5.17;;;2.40;;
60853;SDS011;48554;50.766;2.900;2022-10-31T16:44:22;6.30;;;2.40;;
60853;SDS011;48554;50.766;2.900;2022-10-31T16:46:45;4.68;;;2.13;;
60853;SDS011;48554;50.766;2.900;2022-10-31T16:49:07;8.10;;;2.80;;
60853;SDS011;48554;50.766;2.900;2022-10-31T16:51:28;7.70;;;2.58;;
60853;SDS011;48554;50.766;2.900;2022-10-31T16:53:51;5.43;;;2.20;;